sensor_id;sensor_type;location;lat;lon;timestamp;P1;durP1;ratioP1;P2;durP2;ratioP2
74241;SDS011;62599;49.146;10.426;2023-11-21T00:00:45;0.30;;;0.20;;
74241;SDS011;62599;49.146;10.426;2023-11-21T00:03:11;3.55;;;0.45;;
74241;SDS011;62599;49.146;10.426;2023-11-21T00:05:39;3.55;;;1.20;;
74241;SDS011;62599;49.146;10.426;2023-11-21T00:08:06;0.52;;;0.40;;
74241;SDS011;62599;49.146;10.426;2023-11-21T00:10:32;0.85;;;0.20;;
74241;SDS011;62599;49.146;10.426;2023-11-21T00:12:57;8.00;;;0.90;;
74241;SDS011;62599;49.146;10.426;2023-11-21T00:18:25;6.05;;;0.47;;
74241;SDS011;62599;49.146;10.426;2023-11-21T00:20:50;0.30;;;0.20;;
74241;SDS011;62599;49.146;10.426;2023-11-21T00:23:15;2.87;;;0.30;;
74241;SDS011;62599;49.146;10.426;2023-11-21T00:25:41;1.75;;;0.50;;
74241;SDS011;62599;49.146;10.426;2023-11-21T00:28:06;2.73;;;0.27;;
74241;SDS011;62599;49.146;10.426;2023-11-21T00:30:32;5.20;;;0.20;;
74241;SDS011;62599;49.146;10.426;2023-11-21T00:32:57;1.83;;;0.30;;
74241;SDS011;62599;49.146;10.426;2023-11-21T00:35:22;2.33;;;0.70;;
74241;SDS011;62599;49.146;10.426;2023-11-21T00:37:47;6.30;;;0.57;;
74241;SDS011;62599;49.146;10.426;2023-11-21T00:40:14;1.80;;;0.47;;
74241;SDS011;62599;49.146;10.426;2023-11-21T00:42:40;0.80;;;0.30;;
74241;SDS011;62599;49.146;10.426;2023-11-21T00:45:06;0.67;;;0.30;;
74241;SDS011;62599;49.146;10.426;2023-11-21T00:47:31;1.40;;;0.65;;
74241;SDS011;62599;49.146;10.426;2023-11-21T00:49:56;0.60;;;0.50;;
74241;SDS011;62599;49.146;10.426;2023-11-21T00:52:22;1.27;;;0.60;;
74241;SDS011;62599;49.146;10.426;2023-11-21T00:54:47;0.40;;;0.20;;
74241;SDS011;62599;49.146;10.426;2023-11-21T00:57:13;1.02;;;0.93;;
74241;SDS011;62599;49.146;10.426;2023-11-21T00:59:38;0.57;;;0.50;;
74241;SDS011;62599;49.146;10.426;2023-11-21T01:02:03;0.90;;;0.33;;
74241;SDS011;62599;49.146;10.426;2023-11-21T01:04:30;0.60;;;0.32;;
74241;SDS011;62599;49.146;10.426;2023-11-21T01:06:56;0.73;;;0.20;;
74241;SDS011;62599;49.146;10.426;2023-11-21T01:09:22;0.80;;;0.30;;
74241;SDS011;62599;49.146;10.426;2023-11-21T01:11:47;0.60;;;0.33;;
74241;SDS011;62599;49.146;10.426;2023-11-21T01:14:12;0.20;;;0.10;;
74241;SDS011;62599;49.146;10.426;2023-11-21T01:16:38;2.15;;;0.57;;
74241;SDS011;62599;49.146;10.426;2023-11-21T01:19:03;1.60;;;0.20;;
74241;SDS011;62599;49.146;10.426;2023-11-21T01:21:29;1.65;;;0.52;;
74241;SDS011;62599;49.146;10.426;2023-11-21T01:23:58;0.77;;;0.50;;
74241;SDS011;62599;49.146;10.426;2023-11-21T01:26:23;0.68;;;0.32;;
74241;SDS011;62599;49.146;10.426;2023-11-21T01:28:49;1.20;;;0.50;;
74241;SDS011;62599;49.146;10.426;2023-11-21T01:31:14;0.50;;;0.10;;
74241;SDS011;62599;49.146;10.426;2023-11-21T01:33:40;0.65;;;0.35;;
74241;SDS011;62599;49.146;10.426;2023-11-21T01:36:05;0.60;;;0.20;;
74241;SDS011;62599;49.146;10.426;2023-11-21T01:38:30;0.17;;;0.10;;
74241;SDS011;62599;49.146;10.426;2023-11-21T01:40:57;2.13;;;0.40;;
74241;SDS011;62599;49.146;10.426;2023-11-21T01:43:22;0.63;;;0.63;;
74241;SDS011;62599;49.146;10.426;2023-11-21T01:45:47;0.30;;;0.10;;
74241;SDS011;62599;49.146;10.426;2023-11-21T01:48:12;0.67;;;0.40;;
74241;SDS011;62599;49.146;10.426;2023-11-21T01:50:38;1.90;;;0.77;;
74241;SDS011;62599;49.146;10.426;2023-11-21T01:53:03;0.70;;;0.37;;
74241;SDS011;62599;49.146;10.426;2023-11-21T01:55:29;2.23;;;0.33;;
74241;SDS011;62599;49.146;10.426;2023-11-21T01:57:55;0.75;;;0.43;;
74241;SDS011;62599;49.146;10.426;2023-11-21T02:00:21;0.45;;;0.35;;
74241;SDS011;62599;49.146;10.426;2023-11-21T02:02:46;3.00;;;0.60;;
74241;SDS011;62599;49.146;10.426;2023-11-21T02:05:13;2.97;;;0.82;;
74241;SDS011;62599;49.146;10.426;2023-11-21T02:07:39;2.35;;;0.68;;
74241;SDS011;62599;49.146;10.426;2023-11-21T02:10:05;4.25;;;0.32;;
74241;SDS011;62599;49.146;10.426;2023-11-21T02:12:30;2.47;;;0.65;;
74241;SDS011;62599;49.146;10.426;2023-11-21T02:14:56;1.50;;;0.50;;
74241;SDS011;62599;49.146;10.426;2023-11-21T02:17:21;1.10;;;0.60;;
74241;SDS011;62599;49.146;10.426;2023-11-21T02:19:46;1.27;;;0.63;;
74241;SDS011;62599;49.146;10.426;2023-11-21T02:22:12;1.65;;;0.88;;
74241;SDS011;62599;49.146;10.426;2023-11-21T02:24:40;0.65;;;0.52;;
74241;SDS011;62599;49.146;10.426;2023-11-21T02:27:07;2.63;;;0.70;;
74241;SDS011;62599;49.146;10.426;2023-11-21T02:29:32;3.67;;;0.40;;
74241;SDS011;62599;49.146;10.426;2023-11-21T02:31:58;4.80;;;0.32;;
74241;SDS011;62599;49.146;10.426;2023-11-21T02:34:24;2.40;;;0.60;;
74241;SDS011;62599;49.146;10.426;2023-11-21T02:36:49;1.00;;;0.53;;
74241;SDS011;62599;49.146;10.426;2023-11-21T02:39:15;2.03;;;0.90;;
74241;SDS011;62599;49.146;10.426;2023-11-21T02:41:41;4.55;;;0.60;;
74241;SDS011;62599;49.146;10.426;2023-11-21T02:44:07;2.92;;;0.65;;
74241;SDS011;62599;49.146;10.426;2023-11-21T02:46:32;3.97;;;0.90;;
74241;SDS011;62599;49.146;10.426;2023-11-21T02:48:59;1.13;;;0.90;;
74241;SDS011;62599;49.146;10.426;2023-11-21T02:51:24;1.02;;;0.70;;
74241;SDS011;62599;49.146;10.426;2023-11-21T02:53:49;0.83;;;0.50;;
74241;SDS011;62599;49.146;10.426;2023-11-21T02:56:16;1.42;;;0.90;;
74241;SDS011;62599;49.146;10.426;2023-11-21T02:58:42;4.45;;;0.82;;
74241;SDS011;62599;49.146;10.426;2023-11-21T03:01:09;0.63;;;0.43;;
74241;SDS011;62599;49.146;10.426;2023-11-21T03:03:34;0.80;;;0.80;;
74241;SDS011;62599;49.146;10.426;2023-11-21T03:05:59;1.02;;;0.28;;
74241;SDS011;62599;49.146;10.426;2023-11-21T03:08:25;1.60;;;0.60;;
74241;SDS011;62599;49.146;10.426;2023-11-21T03:10:50;1.40;;;0.80;;
74241;SDS011;62599;49.146;10.426;2023-11-21T03:13:15;5.43;;;0.57;;
74241;SDS011;62599;49.146;10.426;2023-11-21T03:15:40;1.20;;;0.80;;
74241;SDS011;62599;49.146;10.426;2023-11-21T03:18:07;1.20;;;0.88;;
74241;SDS011;62599;49.146;10.426;2023-11-21T03:20:33;1.00;;;0.52;;
74241;SDS011;62599;49.146;10.426;2023-11-21T03:22:59;1.10;;;0.65;;
74241;SDS011;62599;49.146;10.426;2023-11-21T03:25:24;1.00;;;0.40;;
74241;SDS011;62599;49.146;10.426;2023-11-21T03:27:50;0.98;;;0.38;;
74241;SDS011;62599;49.146;10.426;2023-11-21T03:30:15;1.37;;;0.57;;
74241;SDS011;62599;49.146;10.426;2023-11-21T03:32:41;0.88;;;0.60;;
74241;SDS011;62599;49.146;10.426;2023-11-21T03:35:07;1.30;;;0.50;;
74241;SDS011;62599;49.146;10.426;2023-11-21T03:37:32;3.33;;;0.88;;
74241;SDS011;62599;49.146;10.426;2023-11-21T03:39:57;2.00;;;0.67;;
74241;SDS011;62599;49.146;10.426;2023-11-21T03:42:22;0.67;;;0.40;;
74241;SDS011;62599;49.146;10.426;2023-11-21T03:44:48;1.02;;;0.50;;
74241;SDS011;62599;49.146;10.426;2023-11-21T03:47:13;1.83;;;0.50;;
74241;SDS011;62599;49.146;10.426;2023-11-21T03:49:38;0.63;;;0.40;;
74241;SDS011;62599;49.146;10.426;2023-11-21T03:52:04;0.90;;;0.57;;
74241;SDS011;62599;49.146;10.426;2023-11-21T03:54:29;0.95;;;0.52;;
74241;SDS011;62599;49.146;10.426;2023-11-21T03:56:54;2.07;;;0.57;;
74241;SDS011;62599;49.146;10.426;2023-11-21T03:59:19;8.77;;;0.40;;
74241;SDS011;62599;49.146;10.426;2023-11-21T04:01:45;1.00;;;0.73;;
74241;SDS011;62599;49.146;10.426;2023-11-21T04:04:10;0.80;;;0.30;;
74241;SDS011;62599;49.146;10.426;2023-11-21T04:06:35;2.20;;;0.80;;
74241;SDS011;62599;49.146;10.426;2023-11-21T04:09:02;1.63;;;0.65;;
74241;SDS011;62599;49.146;10.426;2023-11-21T04:11:29;0.20;;;0.15;;
74241;SDS011;62599;49.146;10.426;2023-11-21T04:13:55;1.10;;;0.70;;
74241;SDS011;62599;49.146;10.426;2023-11-21T04:16:20;0.80;;;0.53;;
74241;SDS011;62599;49.146;10.426;2023-11-21T04:18:45;0.47;;;0.30;;
74241;SDS011;62599;49.146;10.426;2023-11-21T04:21:10;2.80;;;0.30;;
74241;SDS011;62599;49.146;10.426;2023-11-21T04:23:35;2.17;;;0.77;;
74241;SDS011;62599;49.146;10.426;2023-11-21T04:26:01;0.70;;;0.50;;
74241;SDS011;62599;49.146;10.426;2023-11-21T04:28:27;2.03;;;0.93;;
74241;SDS011;62599;49.146;10.426;2023-11-21T04:30:52;2.13;;;0.55;;
74241;SDS011;62599;49.146;10.426;2023-11-21T04:33:17;1.03;;;0.90;;
74241;SDS011;62599;49.146;10.426;2023-11-21T04:35:43;2.43;;;0.53;;
74241;SDS011;62599;49.146;10.426;2023-11-21T04:38:08;2.27;;;0.70;;
74241;SDS011;62599;49.146;10.426;2023-11-21T04:40:33;2.27;;;0.50;;
74241;SDS011;62599;49.146;10.426;2023-11-21T04:42:58;3.33;;;0.57;;
74241;SDS011;62599;49.146;10.426;2023-11-21T04:45:23;2.60;;;0.60;;
74241;SDS011;62599;49.146;10.426;2023-11-21T04:47:49;2.30;;;0.63;;
74241;SDS011;62599;49.146;10.426;2023-11-21T04:50:14;4.33;;;0.50;;
74241;SDS011;62599;49.146;10.426;2023-11-21T04:52:39;2.07;;;0.40;;
74241;SDS011;62599;49.146;10.426;2023-11-21T04:55:05;6.47;;;0.40;;
74241;SDS011;62599;49.146;10.426;2023-11-21T04:57:31;1.00;;;0.52;;
74241;SDS011;62599;49.146;10.426;2023-11-21T04:59:56;0.97;;;0.47;;
74241;SDS011;62599;49.146;10.426;2023-11-21T05:02:21;1.27;;;0.53;;
74241;SDS011;62599;49.146;10.426;2023-11-21T05:04:47;0.47;;;0.40;;
74241;SDS011;62599;49.146;10.426;2023-11-21T05:07:12;0.50;;;0.50;;
74241;SDS011;62599;49.146;10.426;2023-11-21T05:09:44;0.53;;;0.30;;
74241;SDS011;62599;49.146;10.426;2023-11-21T05:12:10;0.88;;;0.50;;
74241;SDS011;62599;49.146;10.426;2023-11-21T05:14:36;1.65;;;0.63;;
74241;SDS011;62599;49.146;10.426;2023-11-21T05:17:01;3.73;;;1.40;;
74241;SDS011;62599;49.146;10.426;2023-11-21T05:19:27;0.98;;;0.60;;
74241;SDS011;62599;49.146;10.426;2023-11-21T05:21:52;0.90;;;0.80;;
74241;SDS011;62599;49.146;10.426;2023-11-21T05:24:18;1.30;;;0.60;;
74241;SDS011;62599;49.146;10.426;2023-11-21T05:26:43;1.00;;;0.73;;
74241;SDS011;62599;49.146;10.426;2023-11-21T05:29:08;10.73;;;0.83;;
74241;SDS011;62599;49.146;10.426;2023-11-21T05:31:35;1.50;;;0.82;;
74241;SDS011;62599;49.146;10.426;2023-11-21T05:34:01;2.10;;;1.00;;
74241;SDS011;62599;49.146;10.426;2023-11-21T05:36:26;1.97;;;0.93;;
74241;SDS011;62599;49.146;10.426;2023-11-21T05:38:51;0.77;;;0.70;;
74241;SDS011;62599;49.146;10.426;2023-11-21T05:41:16;1.47;;;0.90;;
74241;SDS011;62599;49.146;10.426;2023-11-21T05:43:42;0.60;;;0.57;;
74241;SDS011;62599;49.146;10.426;2023-11-21T05:46:07;1.90;;;0.73;;
74241;SDS011;62599;49.146;10.426;2023-11-21T05:48:33;1.90;;;0.93;;
74241;SDS011;62599;49.146;10.426;2023-11-21T05:50:58;2.80;;;0.80;;
74241;SDS011;62599;49.146;10.426;2023-11-21T05:53:24;1.73;;;0.82;;
74241;SDS011;62599;49.146;10.426;2023-11-21T05:55:49;0.73;;;0.40;;
74241;SDS011;62599;49.146;10.426;2023-11-21T05:58:20;0.57;;;0.30;;
74241;SDS011;62599;49.146;10.426;2023-11-21T06:00:46;0.75;;;0.65;;
74241;SDS011;62599;49.146;10.426;2023-11-21T06:03:11;0.77;;;0.50;;
74241;SDS011;62599;49.146;10.426;2023-11-21T06:05:37;1.65;;;0.85;;
74241;SDS011;62599;49.146;10.426;2023-11-21T06:08:02;1.83;;;1.13;;
74241;SDS011;62599;49.146;10.426;2023-11-21T06:10:28;1.03;;;0.73;;
74241;SDS011;62599;49.146;10.426;2023-11-21T06:12:53;1.53;;;0.70;;
74241;SDS011;62599;49.146;10.426;2023-11-21T06:15:18;0.95;;;0.60;;
74241;SDS011;62599;49.146;10.426;2023-11-21T06:17:45;1.25;;;0.63;;
74241;SDS011;62599;49.146;10.426;2023-11-21T06:20:14;1.85;;;0.98;;
74241;SDS011;62599;49.146;10.426;2023-11-21T06:22:43;1.98;;;1.00;;
74241;SDS011;62599;49.146;10.426;2023-11-21T06:25:11;1.23;;;0.57;;
74241;SDS011;62599;49.146;10.426;2023-11-21T06:27:39;0.90;;;0.32;;
74241;SDS011;62599;49.146;10.426;2023-11-21T06:30:05;0.57;;;0.50;;
74241;SDS011;62599;49.146;10.426;2023-11-21T06:32:31;0.22;;;0.22;;
74241;SDS011;62599;49.146;10.426;2023-11-21T06:34:56;0.47;;;0.30;;
74241;SDS011;62599;49.146;10.426;2023-11-21T06:37:24;0.40;;;0.25;;
74241;SDS011;62599;49.146;10.426;2023-11-21T06:39:50;0.40;;;0.40;;
74241;SDS011;62599;49.146;10.426;2023-11-21T06:42:17;0.65;;;0.22;;
74241;SDS011;62599;49.146;10.426;2023-11-21T06:44:42;0.33;;;0.33;;
74241;SDS011;62599;49.146;10.426;2023-11-21T06:47:08;0.20;;;0.20;;
74241;SDS011;62599;49.146;10.426;2023-11-21T06:49:33;0.40;;;0.20;;
74241;SDS011;62599;49.146;10.426;2023-11-21T06:51:58;0.00;;;0.00;;
74241;SDS011;62599;49.146;10.426;2023-11-21T06:54:24;0.20;;;0.20;;
74241;SDS011;62599;49.146;10.426;2023-11-21T06:56:49;0.30;;;0.30;;
74241;SDS011;62599;49.146;10.426;2023-11-21T06:59:15;0.22;;;0.20;;
74241;SDS011;62599;49.146;10.426;2023-11-21T07:01:40;0.53;;;0.50;;
74241;SDS011;62599;49.146;10.426;2023-11-21T07:04:06;0.30;;;0.10;;
74241;SDS011;62599;49.146;10.426;2023-11-21T07:06:32;0.28;;;0.10;;
74241;SDS011;62599;49.146;10.426;2023-11-21T07:08:57;0.57;;;0.20;;
74241;SDS011;62599;49.146;10.426;2023-11-21T07:11:23;0.40;;;0.30;;
74241;SDS011;62599;49.146;10.426;2023-11-21T07:13:48;0.10;;;0.10;;
74241;SDS011;62599;49.146;10.426;2023-11-21T07:16:14;0.30;;;0.30;;
74241;SDS011;62599;49.146;10.426;2023-11-21T07:18:40;0.30;;;0.15;;
74241;SDS011;62599;49.146;10.426;2023-11-21T07:21:05;0.17;;;0.10;;
74241;SDS011;62599;49.146;10.426;2023-11-21T07:23:31;0.10;;;0.10;;
74241;SDS011;62599;49.146;10.426;2023-11-21T07:25:56;0.07;;;0.00;;
74241;SDS011;62599;49.146;10.426;2023-11-21T07:28:22;0.25;;;0.22;;
74241;SDS011;62599;49.146;10.426;2023-11-21T07:30:48;0.00;;;0.00;;
74241;SDS011;62599;49.146;10.426;2023-11-21T07:33:14;0.90;;;0.30;;
74241;SDS011;62599;49.146;10.426;2023-11-21T07:35:39;0.23;;;0.10;;
74241;SDS011;62599;49.146;10.426;2023-11-21T07:38:04;0.40;;;0.30;;
74241;SDS011;62599;49.146;10.426;2023-11-21T07:40:29;0.23;;;0.20;;
74241;SDS011;62599;49.146;10.426;2023-11-21T07:42:55;0.50;;;0.50;;
74241;SDS011;62599;49.146;10.426;2023-11-21T07:45:22;1.15;;;0.30;;
74241;SDS011;62599;49.146;10.426;2023-11-21T07:47:47;1.03;;;0.60;;
74241;SDS011;62599;49.146;10.426;2023-11-21T07:50:12;1.20;;;0.80;;
74241;SDS011;62599;49.146;10.426;2023-11-21T07:52:38;1.30;;;0.75;;
74241;SDS011;62599;49.146;10.426;2023-11-21T07:55:03;2.13;;;0.80;;
74241;SDS011;62599;49.146;10.426;2023-11-21T07:57:29;2.67;;;0.85;;
74241;SDS011;62599;49.146;10.426;2023-11-21T07:59:54;1.47;;;0.70;;
74241;SDS011;62599;49.146;10.426;2023-11-21T08:02:20;1.45;;;1.05;;
74241;SDS011;62599;49.146;10.426;2023-11-21T08:04:45;6.50;;;1.20;;
74241;SDS011;62599;49.146;10.426;2023-11-21T08:07:10;3.40;;;0.90;;
74241;SDS011;62599;49.146;10.426;2023-11-21T08:09:36;2.00;;;1.10;;
74241;SDS011;62599;49.146;10.426;2023-11-21T08:12:01;3.03;;;1.20;;
74241;SDS011;62599;49.146;10.426;2023-11-21T08:14:27;1.83;;;0.98;;
74241;SDS011;62599;49.146;10.426;2023-11-21T08:16:52;6.60;;;4.20;;
74241;SDS011;62599;49.146;10.426;2023-11-21T08:19:22;7.70;;;3.88;;
74241;SDS011;62599;49.146;10.426;2023-11-21T08:21:49;4.68;;;1.92;;
74241;SDS011;62599;49.146;10.426;2023-11-21T08:24:15;3.00;;;1.17;;
74241;SDS011;62599;49.146;10.426;2023-11-21T08:26:40;2.27;;;1.37;;
74241;SDS011;62599;49.146;10.426;2023-11-21T08:29:05;1.47;;;0.97;;
74241;SDS011;62599;49.146;10.426;2023-11-21T08:31:32;6.03;;;3.28;;
74241;SDS011;62599;49.146;10.426;2023-11-21T08:33:57;13.93;;;3.25;;
74241;SDS011;62599;49.146;10.426;2023-11-21T08:36:22;4.37;;;2.57;;
74241;SDS011;62599;49.146;10.426;2023-11-21T08:38:50;4.65;;;2.90;;
74241;SDS011;62599;49.146;10.426;2023-11-21T08:41:17;4.70;;;3.38;;
74241;SDS011;62599;49.146;10.426;2023-11-21T08:43:42;4.55;;;2.13;;
74241;SDS011;62599;49.146;10.426;2023-11-21T08:46:07;2.43;;;1.50;;
74241;SDS011;62599;49.146;10.426;2023-11-21T08:48:34;3.17;;;1.92;;
74241;SDS011;62599;49.146;10.426;2023-11-21T08:51:01;11.23;;;5.60;;
74241;SDS011;62599;49.146;10.426;2023-11-21T08:53:26;7.97;;;4.03;;
74241;SDS011;62599;49.146;10.426;2023-11-21T08:55:51;11.80;;;3.93;;
74241;SDS011;62599;49.146;10.426;2023-11-21T08:58:16;11.23;;;5.07;;
74241;SDS011;62599;49.146;10.426;2023-11-21T09:00:42;10.88;;;6.05;;
74241;SDS011;62599;49.146;10.426;2023-11-21T09:03:07;4.20;;;2.42;;
74241;SDS011;62599;49.146;10.426;2023-11-21T09:05:33;8.55;;;4.15;;
74241;SDS011;62599;49.146;10.426;2023-11-21T09:07:59;4.07;;;2.53;;
74241;SDS011;62599;49.146;10.426;2023-11-21T09:10:24;2.97;;;2.03;;
74241;SDS011;62599;49.146;10.426;2023-11-21T09:12:50;7.45;;;5.18;;
74241;SDS011;62599;49.146;10.426;2023-11-21T09:15:18;4.78;;;3.03;;
74241;SDS011;62599;49.146;10.426;2023-11-21T09:17:45;5.95;;;3.83;;
74241;SDS011;62599;49.146;10.426;2023-11-21T09:20:10;9.67;;;3.77;;
74241;SDS011;62599;49.146;10.426;2023-11-21T09:22:36;3.78;;;2.28;;
74241;SDS011;62599;49.146;10.426;2023-11-21T09:25:01;3.28;;;1.73;;
74241;SDS011;62599;49.146;10.426;2023-11-21T09:27:30;4.25;;;2.60;;
74241;SDS011;62599;49.146;10.426;2023-11-21T09:29:55;4.60;;;1.90;;
74241;SDS011;62599;49.146;10.426;2023-11-21T09:32:20;2.38;;;1.45;;
74241;SDS011;62599;49.146;10.426;2023-11-21T09:34:46;2.20;;;1.55;;
74241;SDS011;62599;49.146;10.426;2023-11-21T09:37:11;2.93;;;1.27;;
74241;SDS011;62599;49.146;10.426;2023-11-21T09:39:36;4.17;;;1.60;;
74241;SDS011;62599;49.146;10.426;2023-11-21T09:47:26;4.43;;;1.60;;
74241;SDS011;62599;49.146;10.426;2023-11-21T09:49:53;2.65;;;1.38;;
74241;SDS011;62599;49.146;10.426;2023-11-21T09:52:24;1.77;;;1.38;;
74241;SDS011;62599;49.146;10.426;2023-11-21T09:54:50;3.63;;;1.52;;
74241;SDS011;62599;49.146;10.426;2023-11-21T09:57:16;3.67;;;1.42;;
74241;SDS011;62599;49.146;10.426;2023-11-21T09:59:42;2.22;;;1.58;;
74241;SDS011;62599;49.146;10.426;2023-11-21T10:02:09;3.40;;;1.95;;
74241;SDS011;62599;49.146;10.426;2023-11-21T10:04:38;3.38;;;2.05;;
74241;SDS011;62599;49.146;10.426;2023-11-21T10:07:03;3.73;;;2.00;;
74241;SDS011;62599;49.146;10.426;2023-11-21T10:09:29;3.40;;;2.03;;
74241;SDS011;62599;49.146;10.426;2023-11-21T10:11:54;3.73;;;2.10;;
74241;SDS011;62599;49.146;10.426;2023-11-21T10:14:21;4.95;;;2.97;;
74241;SDS011;62599;49.146;10.426;2023-11-21T10:16:49;1.83;;;1.48;;
74241;SDS011;62599;49.146;10.426;2023-11-21T10:19:15;2.88;;;1.52;;
74241;SDS011;62599;49.146;10.426;2023-11-21T10:21:42;3.38;;;2.05;;
74241;SDS011;62599;49.146;10.426;2023-11-21T10:24:07;1.33;;;1.23;;
74241;SDS011;62599;49.146;10.426;2023-11-21T10:26:32;0.75;;;0.32;;
74241;SDS011;62599;49.146;10.426;2023-11-21T10:28:58;1.33;;;0.75;;
74241;SDS011;62599;49.146;10.426;2023-11-21T10:31:26;0.90;;;0.50;;
74241;SDS011;62599;49.146;10.426;2023-11-21T10:33:51;0.70;;;0.43;;
74241;SDS011;62599;49.146;10.426;2023-11-21T10:36:28;1.17;;;0.98;;
74241;SDS011;62599;49.146;10.426;2023-11-21T10:38:54;0.77;;;0.57;;
74241;SDS011;62599;49.146;10.426;2023-11-21T10:41:20;1.08;;;0.50;;
74241;SDS011;62599;49.146;10.426;2023-11-21T10:43:45;0.55;;;0.45;;
74241;SDS011;62599;49.146;10.426;2023-11-21T10:46:10;0.37;;;0.37;;
74241;SDS011;62599;49.146;10.426;2023-11-21T10:48:38;0.37;;;0.17;;
74241;SDS011;62599;49.146;10.426;2023-11-21T10:51:07;0.45;;;0.45;;
74241;SDS011;62599;49.146;10.426;2023-11-21T10:53:32;0.05;;;0.05;;
74241;SDS011;62599;49.146;10.426;2023-11-21T10:56:02;0.45;;;0.28;;
74241;SDS011;62599;49.146;10.426;2023-11-21T10:58:28;0.22;;;0.22;;
74241;SDS011;62599;49.146;10.426;2023-11-21T11:00:53;0.30;;;0.17;;
74241;SDS011;62599;49.146;10.426;2023-11-21T11:03:19;0.67;;;0.67;;
74241;SDS011;62599;49.146;10.426;2023-11-21T11:05:44;0.75;;;0.30;;
74241;SDS011;62599;49.146;10.426;2023-11-21T11:08:16;0.43;;;0.40;;
74241;SDS011;62599;49.146;10.426;2023-11-21T11:10:45;0.22;;;0.22;;
74241;SDS011;62599;49.146;10.426;2023-11-21T11:13:12;0.30;;;0.20;;
74241;SDS011;62599;49.146;10.426;2023-11-21T11:15:40;1.33;;;0.55;;
74241;SDS011;62599;49.146;10.426;2023-11-21T11:18:05;0.20;;;0.20;;
74241;SDS011;62599;49.146;10.426;2023-11-21T11:20:35;0.25;;;0.20;;
74241;SDS011;62599;49.146;10.426;2023-11-21T11:23:29;1.52;;;0.32;;
74241;SDS011;62599;49.146;10.426;2023-11-21T11:28:22;0.50;;;0.22;;
74241;SDS011;62599;49.146;10.426;2023-11-21T11:31:05;0.17;;;0.00;;
74241;SDS011;62599;49.146;10.426;2023-11-21T11:33:39;0.35;;;0.32;;
74241;SDS011;62599;49.146;10.426;2023-11-21T11:36:10;0.22;;;0.22;;
74241;SDS011;62599;49.146;10.426;2023-11-21T11:38:38;0.50;;;0.45;;
74241;SDS011;62599;49.146;10.426;2023-11-21T11:41:04;0.32;;;0.32;;
74241;SDS011;62599;49.146;10.426;2023-11-21T11:43:30;0.20;;;0.10;;
74241;SDS011;62599;49.146;10.426;2023-11-21T11:46:09;2.20;;;0.40;;
74241;SDS011;62599;49.146;10.426;2023-11-21T11:48:39;0.30;;;0.30;;
74241;SDS011;62599;49.146;10.426;2023-11-21T11:51:11;0.47;;;0.40;;
74241;SDS011;62599;49.146;10.426;2023-11-21T11:53:40;0.55;;;0.40;;
74241;SDS011;62599;49.146;10.426;2023-11-21T11:58:54;1.30;;;0.47;;
74241;SDS011;62599;49.146;10.426;2023-11-21T12:01:20;1.48;;;0.47;;
74241;SDS011;62599;49.146;10.426;2023-11-21T12:08:55;0.20;;;0.20;;
74241;SDS011;62599;49.146;10.426;2023-11-21T12:11:21;0.32;;;0.28;;
74241;SDS011;62599;49.146;10.426;2023-11-21T12:13:48;2.15;;;0.55;;
74241;SDS011;62599;49.146;10.426;2023-11-21T12:16:13;0.27;;;0.27;;
74241;SDS011;62599;49.146;10.426;2023-11-21T12:18:39;1.92;;;0.85;;
74241;SDS011;62599;49.146;10.426;2023-11-21T12:21:04;1.10;;;0.40;;
74241;SDS011;62599;49.146;10.426;2023-11-21T12:23:31;0.60;;;0.43;;
74241;SDS011;62599;49.146;10.426;2023-11-21T12:25:57;0.77;;;0.63;;
74241;SDS011;62599;49.146;10.426;2023-11-21T12:28:23;0.45;;;0.30;;
74241;SDS011;62599;49.146;10.426;2023-11-21T12:30:49;0.50;;;0.47;;
74241;SDS011;62599;49.146;10.426;2023-11-21T12:33:14;0.47;;;0.38;;
74241;SDS011;62599;49.146;10.426;2023-11-21T12:35:42;2.08;;;0.93;;
74241;SDS011;62599;49.146;10.426;2023-11-21T12:38:09;1.10;;;0.70;;
74241;SDS011;62599;49.146;10.426;2023-11-21T12:40:35;2.25;;;1.23;;
74241;SDS011;62599;49.146;10.426;2023-11-21T12:43:00;0.88;;;0.82;;
74241;SDS011;62599;49.146;10.426;2023-11-21T12:45:29;2.80;;;1.05;;
74241;SDS011;62599;49.146;10.426;2023-11-21T12:47:59;4.13;;;1.33;;
74241;SDS011;62599;49.146;10.426;2023-11-21T12:50:28;3.65;;;1.52;;
74241;SDS011;62599;49.146;10.426;2023-11-21T12:53:09;2.58;;;1.05;;
74241;SDS011;62599;49.146;10.426;2023-11-21T12:55:37;3.30;;;1.67;;
74241;SDS011;62599;49.146;10.426;2023-11-21T12:58:03;2.80;;;1.55;;
74241;SDS011;62599;49.146;10.426;2023-11-21T13:03:38;2.55;;;1.35;;
74241;SDS011;62599;49.146;10.426;2023-11-21T13:06:05;4.38;;;1.30;;
74241;SDS011;62599;49.146;10.426;2023-11-21T13:08:34;3.60;;;1.85;;
74241;SDS011;62599;49.146;10.426;2023-11-21T13:10:59;13.25;;;1.73;;
74241;SDS011;62599;49.146;10.426;2023-11-21T13:13:27;3.47;;;1.63;;
74241;SDS011;62599;49.146;10.426;2023-11-21T13:15:54;1.58;;;1.08;;
74241;SDS011;62599;49.146;10.426;2023-11-21T13:18:22;2.45;;;1.15;;
74241;SDS011;62599;49.146;10.426;2023-11-21T13:20:54;2.78;;;1.63;;
74241;SDS011;62599;49.146;10.426;2023-11-21T13:23:20;2.72;;;1.52;;
74241;SDS011;62599;49.146;10.426;2023-11-21T13:25:46;7.60;;;1.90;;
74241;SDS011;62599;49.146;10.426;2023-11-21T13:28:13;3.17;;;1.63;;
74241;SDS011;62599;49.146;10.426;2023-11-21T13:30:40;2.40;;;1.58;;
74241;SDS011;62599;49.146;10.426;2023-11-21T13:33:07;4.88;;;1.63;;
74241;SDS011;62599;49.146;10.426;2023-11-21T13:51:29;3.55;;;1.88;;
74241;SDS011;62599;49.146;10.426;2023-11-21T13:54:05;3.47;;;1.90;;
74241;SDS011;62599;49.146;10.426;2023-11-21T14:14:11;10.80;;;3.08;;
74241;SDS011;62599;49.146;10.426;2023-11-21T14:16:37;6.00;;;1.55;;
74241;SDS011;62599;49.146;10.426;2023-11-21T14:19:13;1.67;;;1.13;;
74241;SDS011;62599;49.146;10.426;2023-11-21T14:22:04;2.60;;;1.75;;
74241;SDS011;62599;49.146;10.426;2023-11-21T14:24:35;1.70;;;0.68;;
74241;SDS011;62599;49.146;10.426;2023-11-21T14:27:10;1.83;;;0.90;;
74241;SDS011;62599;49.146;10.426;2023-11-21T14:29:40;4.35;;;1.98;;
74241;SDS011;62599;49.146;10.426;2023-11-21T14:35:33;0.50;;;0.47;;
74241;SDS011;62599;49.146;10.426;2023-11-21T14:38:03;3.20;;;1.65;;
74241;SDS011;62599;49.146;10.426;2023-11-21T14:40:52;1.42;;;0.88;;
74241;SDS011;62599;49.146;10.426;2023-11-21T14:43:36;4.95;;;1.92;;
74241;SDS011;62599;49.146;10.426;2023-11-21T14:46:24;4.15;;;1.48;;
74241;SDS011;62599;49.146;10.426;2023-11-21T14:48:55;3.78;;;2.03;;
74241;SDS011;62599;49.146;10.426;2023-11-21T14:51:41;7.80;;;2.28;;
74241;SDS011;62599;49.146;10.426;2023-11-21T14:54:29;3.25;;;2.00;;
74241;SDS011;62599;49.146;10.426;2023-11-21T14:57:27;3.30;;;1.90;;
74241;SDS011;62599;49.146;10.426;2023-11-21T14:59:59;2.15;;;1.38;;
74241;SDS011;62599;49.146;10.426;2023-11-21T15:02:34;4.05;;;2.28;;
74241;SDS011;62599;49.146;10.426;2023-11-21T15:05:15;2.58;;;0.90;;
74241;SDS011;62599;49.146;10.426;2023-11-21T15:07:41;1.92;;;1.17;;
74241;SDS011;62599;49.146;10.426;2023-11-21T15:10:07;3.87;;;2.33;;
74241;SDS011;62599;49.146;10.426;2023-11-21T15:12:37;5.78;;;2.55;;
74241;SDS011;62599;49.146;10.426;2023-11-21T15:15:05;4.15;;;1.75;;
74241;SDS011;62599;49.146;10.426;2023-11-21T15:17:36;3.80;;;2.35;;
74241;SDS011;62599;49.146;10.426;2023-11-21T15:20:02;3.85;;;1.75;;
74241;SDS011;62599;49.146;10.426;2023-11-21T15:22:29;4.28;;;2.25;;
74241;SDS011;62599;49.146;10.426;2023-11-21T15:24:55;6.90;;;1.33;;
74241;SDS011;62599;49.146;10.426;2023-11-21T15:27:21;2.95;;;1.65;;
74241;SDS011;62599;49.146;10.426;2023-11-21T15:29:46;6.28;;;2.38;;